Ray, Ohio
Current Conditions -  °F | °C
As of 12:55 AM on Sunday 26 Oct 2014 (Local Time) from KUNI Reporting Station
Moderate Fog Moderate Fog  
Wind Chill: 49°   Ceiling: 100
Heat Index: 49°   Visibility: 0.25mi
Dew Point: 47°   Wind: 0mph
Humidity: 94%   Direction: NA
Pressure: 29.88"   Gusts: NA
Location:  39.2°N, 82.68°W
Report Text: KUNI 260455Z AUTO 00000KT 1/4SM FG BKN001 10/09 A2988 RMK AO2 T00950086
Loading
Personal Weather Stations






























Interactive Weather Map
Tropical Storm Tracking
New forecast layout! Learn more

10-Day Weather Forecast

Advertisements
Track Severe Weather on mobile